Skip Navigation Links Skip Navigation Links

Current Weather

Teterboro, N.J.

For information only: do not use for flight planning or navigation.
Latest weather
Observation time Monday, June 21, 2021 8:51 PM EDT
Local time Monday, June 21, 2021 9:32 PM EDT
Flight conditions Visual Meteorological Conditions
Winds
Wind direction South (180°)
Wind speed 13 mph
Wind gusting to 20 mph
Visibility 10 mi.
Sky condition
Ceiling unlimited
Cloud layer few clouds 4,100 ft.
Temperature 81°F
Dewpoint 71°F
Altimeter 29.60 in.Hg
Derived measurements
Relative humidity 72%
Heat index 85°F
Density altitude 2132 ft.
Sea-level pressure 29.60 in.Hg
Remarks
System requires maintenance.
Automated weather observing station with precipitation discriminator.
METAR KTEB 220051Z 18011G17KT 10SM FEW041 27/22 A2960 RMK AO2 SLP022 T02720217 $

Settings

Location code

InnerDrive.Weather 4.0.6770.0 Release CLR 4.0.30319.42000
Copyright ©2018 Inner Drive Technology. All rights reserved. Portions Copyright ©1986-2018 David Braverman.

Find weather

Site navigation


Skip Navigation Links

Place info

Page info

PayPal - The safer, easier way to pay online!

Return home.

Copyright ©2021 Inner Drive Technology. Purveyors of fine, hand-crafted computer software. Page printed 2021-06-22T01:32:39 UTC.